sensor_id;sensor_type;location;lat;lon;timestamp;P1;durP1;ratioP1;P2;durP2;ratioP2
37753;SDS011;23596;52.520;13.464;2023-05-10T00:00:38;18.00;;;7.13;;
37753;SDS011;23596;52.520;13.464;2023-05-10T00:03:04;16.08;;;7.00;;
37753;SDS011;23596;52.520;13.464;2023-05-10T00:05:30;15.90;;;7.18;;
37753;SDS011;23596;52.520;13.464;2023-05-10T00:07:56;12.73;;;6.85;;
37753;SDS011;23596;52.520;13.464;2023-05-10T00:10:22;15.20;;;7.40;;
37753;SDS011;23596;52.520;13.464;2023-05-10T00:12:47;18.73;;;7.67;;
37753;SDS011;23596;52.520;13.464;2023-05-10T00:15:13;16.15;;;6.43;;
37753;SDS011;23596;52.520;13.464;2023-05-10T00:17:39;14.30;;;7.63;;
37753;SDS011;23596;52.520;13.464;2023-05-10T00:20:05;11.88;;;6.30;;
37753;SDS011;23596;52.520;13.464;2023-05-10T00:22:31;14.13;;;6.50;;
37753;SDS011;23596;52.520;13.464;2023-05-10T00:24:57;16.10;;;7.77;;
37753;SDS011;23596;52.520;13.464;2023-05-10T00:27:23;10.60;;;5.85;;
37753;SDS011;23596;52.520;13.464;2023-05-10T00:29:49;13.27;;;6.40;;
37753;SDS011;23596;52.520;13.464;2023-05-10T00:32:14;16.40;;;6.40;;
37753;SDS011;23596;52.520;13.464;2023-05-10T00:34:40;14.70;;;6.50;;
37753;SDS011;23596;52.520;13.464;2023-05-10T00:37:06;19.90;;;6.45;;
37753;SDS011;23596;52.520;13.464;2023-05-10T00:39:32;19.65;;;7.07;;
37753;SDS011;23596;52.520;13.464;2023-05-10T00:41:57;18.20;;;7.00;;
37753;SDS011;23596;52.520;13.464;2023-05-10T00:44:23;13.45;;;6.57;;
37753;SDS011;23596;52.520;13.464;2023-05-10T00:46:48;14.40;;;6.05;;
37753;SDS011;23596;52.520;13.464;2023-05-10T00:49:15;17.33;;;6.33;;
37753;SDS011;23596;52.520;13.464;2023-05-10T00:51:41;12.50;;;6.10;;
37753;SDS011;23596;52.520;13.464;2023-05-10T00:54:08;15.55;;;6.20;;
37753;SDS011;23596;52.520;13.464;2023-05-10T00:56:36;11.10;;;6.25;;
37753;SDS011;23596;52.520;13.464;2023-05-10T00:59:02;15.65;;;6.45;;
37753;SDS011;23596;52.520;13.464;2023-05-10T01:01:28;12.60;;;6.35;;
37753;SDS011;23596;52.520;13.464;2023-05-10T01:03:55;9.95;;;6.07;;
37753;SDS011;23596;52.520;13.464;2023-05-10T01:06:20;16.70;;;6.93;;
37753;SDS011;23596;52.520;13.464;2023-05-10T01:08:46;11.52;;;6.60;;
37753;SDS011;23596;52.520;13.464;2023-05-10T01:11:12;17.27;;;6.25;;
37753;SDS011;23596;52.520;13.464;2023-05-10T01:13:39;13.37;;;6.37;;
37753;SDS011;23596;52.520;13.464;2023-05-10T01:16:07;12.13;;;6.28;;
37753;SDS011;23596;52.520;13.464;2023-05-10T01:18:35;17.03;;;7.80;;
37753;SDS011;23596;52.520;13.464;2023-05-10T01:29:40;22.73;;;6.97;;
37753;SDS011;23596;52.520;13.464;2023-05-10T01:43:21;15.07;;;6.65;;
37753;SDS011;23596;52.520;13.464;2023-05-10T01:48:29;13.02;;;6.82;;
37753;SDS011;23596;52.520;13.464;2023-05-10T01:50:56;21.73;;;7.07;;
37753;SDS011;23596;52.520;13.464;2023-05-10T01:53:23;16.67;;;7.00;;
37753;SDS011;23596;52.520;13.464;2023-05-10T01:55:51;18.15;;;7.15;;
37753;SDS011;23596;52.520;13.464;2023-05-10T01:58:20;16.60;;;6.70;;
37753;SDS011;23596;52.520;13.464;2023-05-10T02:00:49;13.48;;;7.13;;
37753;SDS011;23596;52.520;13.464;2023-05-10T02:03:16;16.48;;;6.85;;
37753;SDS011;23596;52.520;13.464;2023-05-10T02:05:45;18.27;;;7.10;;
37753;SDS011;23596;52.520;13.464;2023-05-10T02:08:13;13.00;;;6.38;;
37753;SDS011;23596;52.520;13.464;2023-05-10T02:10:40;19.00;;;7.32;;
37753;SDS011;23596;52.520;13.464;2023-05-10T02:13:07;11.68;;;6.55;;
37753;SDS011;23596;52.520;13.464;2023-05-10T02:15:35;14.48;;;6.53;;
37753;SDS011;23596;52.520;13.464;2023-05-10T02:18:02;15.43;;;6.80;;
37753;SDS011;23596;52.520;13.464;2023-05-10T02:20:30;14.57;;;7.22;;
37753;SDS011;23596;52.520;13.464;2023-05-10T02:22:57;17.23;;;6.97;;
37753;SDS011;23596;52.520;13.464;2023-05-10T02:25:23;14.80;;;6.95;;
37753;SDS011;23596;52.520;13.464;2023-05-10T02:27:50;13.18;;;6.60;;
37753;SDS011;23596;52.520;13.464;2023-05-10T02:30:18;19.23;;;6.63;;
37753;SDS011;23596;52.520;13.464;2023-05-10T02:32:44;20.42;;;7.10;;
37753;SDS011;23596;52.520;13.464;2023-05-10T02:35:12;21.85;;;6.20;;
37753;SDS011;23596;52.520;13.464;2023-05-10T02:37:38;15.57;;;7.40;;
37753;SDS011;23596;52.520;13.464;2023-05-10T02:40:05;11.23;;;6.30;;
37753;SDS011;23596;52.520;13.464;2023-05-10T02:42:32;14.10;;;6.53;;
37753;SDS011;23596;52.520;13.464;2023-05-10T02:45:01;18.75;;;6.45;;
37753;SDS011;23596;52.520;13.464;2023-05-10T02:47:28;18.20;;;7.35;;
37753;SDS011;23596;52.520;13.464;2023-05-10T02:49:54;16.40;;;6.20;;
37753;SDS011;23596;52.520;13.464;2023-05-10T02:52:25;23.05;;;7.78;;
37753;SDS011;23596;52.520;13.464;2023-05-10T02:54:54;15.95;;;6.80;;
37753;SDS011;23596;52.520;13.464;2023-05-10T02:57:28;18.55;;;6.90;;
37753;SDS011;23596;52.520;13.464;2023-05-10T02:59:57;17.80;;;6.10;;
37753;SDS011;23596;52.520;13.464;2023-05-10T03:02:23;11.48;;;6.15;;
37753;SDS011;23596;52.520;13.464;2023-05-10T03:04:49;12.13;;;5.68;;
37753;SDS011;23596;52.520;13.464;2023-05-10T03:07:14;12.37;;;6.30;;
37753;SDS011;23596;52.520;13.464;2023-05-10T03:09:41;11.70;;;5.80;;
37753;SDS011;23596;52.520;13.464;2023-05-10T03:12:08;16.13;;;7.53;;
37753;SDS011;23596;52.520;13.464;2023-05-10T03:15:11;13.27;;;6.55;;
37753;SDS011;23596;52.520;13.464;2023-05-10T03:20:20;13.68;;;5.88;;
37753;SDS011;23596;52.520;13.464;2023-05-10T03:22:55;13.43;;;6.22;;
37753;SDS011;23596;52.520;13.464;2023-05-10T03:25:29;11.82;;;6.00;;
37753;SDS011;23596;52.520;13.464;2023-05-10T03:30:21;15.35;;;6.00;;
37753;SDS011;23596;52.520;13.464;2023-05-10T03:32:48;18.35;;;5.90;;
37753;SDS011;23596;52.520;13.464;2023-05-10T03:35:14;18.67;;;6.63;;
37753;SDS011;23596;52.520;13.464;2023-05-10T03:37:39;10.85;;;5.68;;
37753;SDS011;23596;52.520;13.464;2023-05-10T03:40:05;13.27;;;6.82;;
37753;SDS011;23596;52.520;13.464;2023-05-10T03:44:57;14.30;;;6.03;;
37753;SDS011;23596;52.520;13.464;2023-05-10T03:47:23;12.48;;;6.28;;
37753;SDS011;23596;52.520;13.464;2023-05-10T03:49:48;16.48;;;6.00;;
37753;SDS011;23596;52.520;13.464;2023-05-10T03:52:14;16.67;;;6.57;;
37753;SDS011;23596;52.520;13.464;2023-05-10T03:54:40;15.55;;;6.00;;
37753;SDS011;23596;52.520;13.464;2023-05-10T03:57:05;13.57;;;6.50;;
37753;SDS011;23596;52.520;13.464;2023-05-10T03:59:31;12.13;;;6.40;;
37753;SDS011;23596;52.520;13.464;2023-05-10T04:01:57;14.37;;;6.87;;
37753;SDS011;23596;52.520;13.464;2023-05-10T04:04:22;14.60;;;6.50;;
37753;SDS011;23596;52.520;13.464;2023-05-10T04:06:48;14.35;;;6.75;;
37753;SDS011;23596;52.520;13.464;2023-05-10T04:09:14;14.15;;;6.45;;
37753;SDS011;23596;52.520;13.464;2023-05-10T04:11:40;17.43;;;6.43;;
37753;SDS011;23596;52.520;13.464;2023-05-10T04:14:05;15.48;;;6.80;;
37753;SDS011;23596;52.520;13.464;2023-05-10T04:16:31;20.13;;;6.60;;
37753;SDS011;23596;52.520;13.464;2023-05-10T04:18:57;16.77;;;6.65;;
37753;SDS011;23596;52.520;13.464;2023-05-10T04:21:22;11.35;;;5.78;;
37753;SDS011;23596;52.520;13.464;2023-05-10T04:23:48;14.63;;;6.43;;
37753;SDS011;23596;52.520;13.464;2023-05-10T04:26:13;11.77;;;5.60;;
37753;SDS011;23596;52.520;13.464;2023-05-10T04:28:39;10.55;;;5.72;;
37753;SDS011;23596;52.520;13.464;2023-05-10T04:31:06;12.95;;;5.90;;
37753;SDS011;23596;52.520;13.464;2023-05-10T04:33:33;18.17;;;6.65;;
37753;SDS011;23596;52.520;13.464;2023-05-10T04:35:59;13.55;;;5.68;;
37753;SDS011;23596;52.520;13.464;2023-05-10T04:38:25;17.58;;;6.22;;
37753;SDS011;23596;52.520;13.464;2023-05-10T04:40:51;16.23;;;6.23;;
37753;SDS011;23596;52.520;13.464;2023-05-10T04:43:17;17.43;;;5.93;;
37753;SDS011;23596;52.520;13.464;2023-05-10T04:45:43;12.63;;;5.80;;
37753;SDS011;23596;52.520;13.464;2023-05-10T04:48:09;9.50;;;5.82;;
37753;SDS011;23596;52.520;13.464;2023-05-10T04:50:35;17.52;;;5.50;;
37753;SDS011;23596;52.520;13.464;2023-05-10T04:53:01;16.33;;;5.10;;
37753;SDS011;23596;52.520;13.464;2023-05-10T04:55:27;19.92;;;5.88;;
37753;SDS011;23596;52.520;13.464;2023-05-10T04:57:52;13.70;;;5.37;;
37753;SDS011;23596;52.520;13.464;2023-05-10T05:00:20;11.63;;;5.55;;
37753;SDS011;23596;52.520;13.464;2023-05-10T05:02:45;12.07;;;5.30;;
37753;SDS011;23596;52.520;13.464;2023-05-10T05:05:11;11.83;;;5.20;;
37753;SDS011;23596;52.520;13.464;2023-05-10T05:07:37;17.42;;;5.25;;
37753;SDS011;23596;52.520;13.464;2023-05-10T05:10:04;10.48;;;4.78;;
37753;SDS011;23596;52.520;13.464;2023-05-10T05:12:31;18.90;;;5.85;;
37753;SDS011;23596;52.520;13.464;2023-05-10T05:14:56;19.50;;;5.32;;
37753;SDS011;23596;52.520;13.464;2023-05-10T05:17:22;14.00;;;5.93;;
37753;SDS011;23596;52.520;13.464;2023-05-10T05:19:48;14.63;;;4.90;;
37753;SDS011;23596;52.520;13.464;2023-05-10T05:22:13;10.68;;;4.70;;
37753;SDS011;23596;52.520;13.464;2023-05-10T05:24:39;9.07;;;4.53;;
37753;SDS011;23596;52.520;13.464;2023-05-10T05:27:04;14.27;;;5.28;;
37753;SDS011;23596;52.520;13.464;2023-05-10T05:29:31;8.52;;;4.53;;
37753;SDS011;23596;52.520;13.464;2023-05-10T05:31:56;10.90;;;5.07;;
37753;SDS011;23596;52.520;13.464;2023-05-10T05:34:22;13.65;;;4.35;;
37753;SDS011;23596;52.520;13.464;2023-05-10T05:36:48;14.57;;;5.33;;
37753;SDS011;23596;52.520;13.464;2023-05-10T05:39:13;18.33;;;4.95;;
37753;SDS011;23596;52.520;13.464;2023-05-10T05:41:39;11.02;;;4.68;;
37753;SDS011;23596;52.520;13.464;2023-05-10T05:44:04;13.88;;;4.65;;
37753;SDS011;23596;52.520;13.464;2023-05-10T05:46:30;18.20;;;5.15;;
37753;SDS011;23596;52.520;13.464;2023-05-10T05:48:56;13.00;;;4.23;;
37753;SDS011;23596;52.520;13.464;2023-05-10T05:51:22;26.00;;;5.43;;
37753;SDS011;23596;52.520;13.464;2023-05-10T05:53:47;8.88;;;4.63;;
37753;SDS011;23596;52.520;13.464;2023-05-10T05:56:13;7.80;;;4.30;;
37753;SDS011;23596;52.520;13.464;2023-05-10T05:58:38;13.48;;;4.50;;
37753;SDS011;23596;52.520;13.464;2023-05-10T06:01:04;19.20;;;4.70;;
37753;SDS011;23596;52.520;13.464;2023-05-10T06:03:30;13.33;;;4.07;;
37753;SDS011;23596;52.520;13.464;2023-05-10T06:05:55;7.67;;;4.10;;
37753;SDS011;23596;52.520;13.464;2023-05-10T06:08:21;8.15;;;3.58;;
37753;SDS011;23596;52.520;13.464;2023-05-10T06:10:47;9.83;;;4.00;;
37753;SDS011;23596;52.520;13.464;2023-05-10T06:13:13;9.80;;;3.80;;
37753;SDS011;23596;52.520;13.464;2023-05-10T06:15:38;9.48;;;3.40;;
37753;SDS011;23596;52.520;13.464;2023-05-10T06:18:04;9.43;;;3.97;;
37753;SDS011;23596;52.520;13.464;2023-05-10T06:20:30;17.90;;;3.70;;
37753;SDS011;23596;52.520;13.464;2023-05-10T06:22:56;12.80;;;3.63;;
37753;SDS011;23596;52.520;13.464;2023-05-10T06:25:23;7.43;;;3.50;;
37753;SDS011;23596;52.520;13.464;2023-05-10T06:27:48;16.70;;;3.53;;
37753;SDS011;23596;52.520;13.464;2023-05-10T06:30:14;12.90;;;3.30;;
37753;SDS011;23596;52.520;13.464;2023-05-10T06:32:40;13.70;;;4.82;;
37753;SDS011;23596;52.520;13.464;2023-05-10T06:35:06;9.63;;;4.43;;
37753;SDS011;23596;52.520;13.464;2023-05-10T06:37:32;7.80;;;3.55;;
37753;SDS011;23596;52.520;13.464;2023-05-10T06:39:59;11.23;;;3.45;;
37753;SDS011;23596;52.520;13.464;2023-05-10T06:42:25;6.13;;;3.50;;
37753;SDS011;23596;52.520;13.464;2023-05-10T06:44:52;14.05;;;3.83;;
37753;SDS011;23596;52.520;13.464;2023-05-10T06:47:18;14.73;;;3.90;;
37753;SDS011;23596;52.520;13.464;2023-05-10T06:49:43;5.90;;;3.72;;
37753;SDS011;23596;52.520;13.464;2023-05-10T06:52:09;12.55;;;3.45;;
37753;SDS011;23596;52.520;13.464;2023-05-10T06:54:34;10.87;;;3.40;;
37753;SDS011;23596;52.520;13.464;2023-05-10T06:57:00;9.63;;;3.93;;
37753;SDS011;23596;52.520;13.464;2023-05-10T06:59:27;8.25;;;3.35;;
37753;SDS011;23596;52.520;13.464;2023-05-10T07:01:53;13.63;;;3.95;;
37753;SDS011;23596;52.520;13.464;2023-05-10T07:04:19;16.33;;;4.20;;
37753;SDS011;23596;52.520;13.464;2023-05-10T07:06:44;5.53;;;3.15;;
37753;SDS011;23596;52.520;13.464;2023-05-10T07:09:11;9.82;;;3.53;;
37753;SDS011;23596;52.520;13.464;2023-05-10T07:14:03;7.68;;;3.25;;
37753;SDS011;23596;52.520;13.464;2023-05-10T07:16:29;6.30;;;3.50;;
37753;SDS011;23596;52.520;13.464;2023-05-10T07:18:55;12.43;;;3.53;;
37753;SDS011;23596;52.520;13.464;2023-05-10T07:21:20;13.85;;;3.20;;
37753;SDS011;23596;52.520;13.464;2023-05-10T07:23:48;7.55;;;3.33;;
37753;SDS011;23596;52.520;13.464;2023-05-10T07:26:14;11.35;;;3.92;;
37753;SDS011;23596;52.520;13.464;2023-05-10T07:28:40;9.63;;;3.65;;
37753;SDS011;23596;52.520;13.464;2023-05-10T07:31:06;16.23;;;3.80;;
37753;SDS011;23596;52.520;13.464;2023-05-10T07:33:32;11.60;;;3.88;;
37753;SDS011;23596;52.520;13.464;2023-05-10T07:35:57;8.10;;;3.87;;
37753;SDS011;23596;52.520;13.464;2023-05-10T07:38:23;9.93;;;2.90;;
37753;SDS011;23596;52.520;13.464;2023-05-10T07:40:48;7.97;;;3.17;;
37753;SDS011;23596;52.520;13.464;2023-05-10T07:43:14;7.32;;;3.47;;
37753;SDS011;23596;52.520;13.464;2023-05-10T07:45:39;10.20;;;3.53;;
37753;SDS011;23596;52.520;13.464;2023-05-10T07:48:05;20.65;;;3.60;;
37753;SDS011;23596;52.520;13.464;2023-05-10T07:50:30;17.05;;;3.72;;
37753;SDS011;23596;52.520;13.464;2023-05-10T07:52:56;4.88;;;2.90;;
37753;SDS011;23596;52.520;13.464;2023-05-10T07:55:22;8.15;;;3.35;;
37753;SDS011;23596;52.520;13.464;2023-05-10T07:57:47;16.00;;;3.75;;
37753;SDS011;23596;52.520;13.464;2023-05-10T08:00:13;9.73;;;3.70;;
37753;SDS011;23596;52.520;13.464;2023-05-10T08:02:43;8.70;;;2.85;;
37753;SDS011;23596;52.520;13.464;2023-05-10T08:05:08;10.70;;;4.07;;
37753;SDS011;23596;52.520;13.464;2023-05-10T08:07:34;12.35;;;3.33;;
37753;SDS011;23596;52.520;13.464;2023-05-10T08:10:00;8.05;;;3.10;;
37753;SDS011;23596;52.520;13.464;2023-05-10T08:12:26;10.00;;;3.33;;
37753;SDS011;23596;52.520;13.464;2023-05-10T08:14:51;12.07;;;3.72;;
37753;SDS011;23596;52.520;13.464;2023-05-10T08:17:17;6.63;;;3.00;;
37753;SDS011;23596;52.520;13.464;2023-05-10T08:19:42;15.02;;;3.40;;
37753;SDS011;23596;52.520;13.464;2023-05-10T08:22:08;11.77;;;3.50;;
37753;SDS011;23596;52.520;13.464;2023-05-10T08:24:34;7.75;;;3.30;;
37753;SDS011;23596;52.520;13.464;2023-05-10T08:27:03;11.68;;;3.70;;
37753;SDS011;23596;52.520;13.464;2023-05-10T08:29:30;17.55;;;3.60;;
37753;SDS011;23596;52.520;13.464;2023-05-10T08:31:55;8.98;;;3.13;;
37753;SDS011;23596;52.520;13.464;2023-05-10T08:34:21;16.85;;;3.58;;
37753;SDS011;23596;52.520;13.464;2023-05-10T08:36:46;12.57;;;3.03;;
37753;SDS011;23596;52.520;13.464;2023-05-10T08:39:12;7.25;;;3.22;;
37753;SDS011;23596;52.520;13.464;2023-05-10T08:41:38;14.60;;;2.95;;
37753;SDS011;23596;52.520;13.464;2023-05-10T08:44:05;8.27;;;3.10;;
37753;SDS011;23596;52.520;13.464;2023-05-10T08:46:33;10.82;;;3.22;;
37753;SDS011;23596;52.520;13.464;2023-05-10T08:49:04;8.15;;;3.15;;
37753;SDS011;23596;52.520;13.464;2023-05-10T08:51:34;14.70;;;3.63;;
37753;SDS011;23596;52.520;13.464;2023-05-10T08:54:05;8.80;;;3.33;;
37753;SDS011;23596;52.520;13.464;2023-05-10T08:56:31;7.43;;;2.95;;
37753;SDS011;23596;52.520;13.464;2023-05-10T08:58:57;8.83;;;3.10;;
37753;SDS011;23596;52.520;13.464;2023-05-10T09:01:23;6.93;;;3.13;;
37753;SDS011;23596;52.520;13.464;2023-05-10T09:03:50;4.95;;;2.63;;
37753;SDS011;23596;52.520;13.464;2023-05-10T09:06:16;10.98;;;3.75;;
37753;SDS011;23596;52.520;13.464;2023-05-10T09:08:42;7.77;;;2.77;;
37753;SDS011;23596;52.520;13.464;2023-05-10T09:11:08;21.45;;;3.40;;
37753;SDS011;23596;52.520;13.464;2023-05-10T09:13:35;8.60;;;3.42;;
37753;SDS011;23596;52.520;13.464;2023-05-10T09:16:02;6.15;;;3.17;;
37753;SDS011;23596;52.520;13.464;2023-05-10T09:18:28;6.47;;;2.63;;
37753;SDS011;23596;52.520;13.464;2023-05-10T09:20:54;6.70;;;3.10;;
37753;SDS011;23596;52.520;13.464;2023-05-10T09:23:19;21.65;;;3.65;;
37753;SDS011;23596;52.520;13.464;2023-05-10T09:25:45;4.90;;;2.70;;
37753;SDS011;23596;52.520;13.464;2023-05-10T09:28:12;8.65;;;2.90;;
37753;SDS011;23596;52.520;13.464;2023-05-10T09:30:37;12.10;;;3.70;;
37753;SDS011;23596;52.520;13.464;2023-05-10T09:33:04;8.80;;;2.95;;
37753;SDS011;23596;52.520;13.464;2023-05-10T09:35:30;12.27;;;2.77;;
37753;SDS011;23596;52.520;13.464;2023-05-10T09:37:58;7.20;;;3.22;;
37753;SDS011;23596;52.520;13.464;2023-05-10T09:40:27;4.78;;;2.75;;
37753;SDS011;23596;52.520;13.464;2023-05-10T09:42:55;12.55;;;3.60;;
37753;SDS011;23596;52.520;13.464;2023-05-10T09:45:48;9.50;;;3.30;;
37753;SDS011;23596;52.520;13.464;2023-05-10T09:48:16;10.30;;;2.80;;
37753;SDS011;23596;52.520;13.464;2023-05-10T09:50:42;9.60;;;3.10;;
37753;SDS011;23596;52.520;13.464;2023-05-10T09:53:08;4.70;;;2.92;;
37753;SDS011;23596;52.520;13.464;2023-05-10T09:58:14;4.93;;;3.22;;
37753;SDS011;23596;52.520;13.464;2023-05-10T10:00:40;7.23;;;3.00;;
37753;SDS011;23596;52.520;13.464;2023-05-10T10:03:15;13.20;;;3.38;;
37753;SDS011;23596;52.520;13.464;2023-05-10T10:05:42;8.55;;;2.85;;
37753;SDS011;23596;52.520;13.464;2023-05-10T10:08:08;6.57;;;3.40;;
37753;SDS011;23596;52.520;13.464;2023-05-10T10:10:35;9.02;;;3.00;;
37753;SDS011;23596;52.520;13.464;2023-05-10T10:13:01;16.77;;;3.30;;
37753;SDS011;23596;52.520;13.464;2023-05-10T10:15:27;5.18;;;3.08;;
37753;SDS011;23596;52.520;13.464;2023-05-10T10:17:52;9.60;;;2.80;;
37753;SDS011;23596;52.520;13.464;2023-05-10T10:20:19;4.78;;;3.03;;
37753;SDS011;23596;52.520;13.464;2023-05-10T10:22:46;7.85;;;3.10;;
37753;SDS011;23596;52.520;13.464;2023-05-10T10:25:13;5.85;;;2.85;;
37753;SDS011;23596;52.520;13.464;2023-05-10T10:35:44;13.40;;;3.30;;
37753;SDS011;23596;52.520;13.464;2023-05-10T10:38:12;8.00;;;3.00;;
37753;SDS011;23596;52.520;13.464;2023-05-10T10:40:38;6.72;;;3.22;;
37753;SDS011;23596;52.520;13.464;2023-05-10T10:46:09;11.45;;;3.42;;
37753;SDS011;23596;52.520;13.464;2023-05-10T10:51:03;15.63;;;3.20;;
37753;SDS011;23596;52.520;13.464;2023-05-10T10:53:29;14.23;;;3.20;;
37753;SDS011;23596;52.520;13.464;2023-05-10T10:56:08;9.00;;;3.13;;
37753;SDS011;23596;52.520;13.464;2023-05-10T10:58:37;8.05;;;3.15;;
37753;SDS011;23596;52.520;13.464;2023-05-10T11:01:18;5.63;;;2.67;;
37753;SDS011;23596;52.520;13.464;2023-05-10T11:06:31;16.23;;;3.38;;
37753;SDS011;23596;52.520;13.464;2023-05-10T11:08:58;4.50;;;2.65;;
37753;SDS011;23596;52.520;13.464;2023-05-10T11:11:24;7.22;;;2.58;;
37753;SDS011;23596;52.520;13.464;2023-05-10T11:13:50;4.03;;;2.50;;
37753;SDS011;23596;52.520;13.464;2023-05-10T11:16:20;5.07;;;2.83;;
37753;SDS011;23596;52.520;13.464;2023-05-10T11:21:21;5.25;;;2.95;;
37753;SDS011;23596;52.520;13.464;2023-05-10T11:26:14;9.63;;;2.70;;
37753;SDS011;23596;52.520;13.464;2023-05-10T11:28:47;9.60;;;3.13;;
37753;SDS011;23596;52.520;13.464;2023-05-10T11:31:14;12.50;;;2.80;;
37753;SDS011;23596;52.520;13.464;2023-05-10T11:33:44;18.15;;;3.08;;
37753;SDS011;23596;52.520;13.464;2023-05-10T11:36:18;14.90;;;3.13;;
37753;SDS011;23596;52.520;13.464;2023-05-10T11:38:45;6.53;;;3.10;;
37753;SDS011;23596;52.520;13.464;2023-05-10T11:41:11;6.63;;;2.90;;
37753;SDS011;23596;52.520;13.464;2023-05-10T11:43:41;16.55;;;3.15;;
37753;SDS011;23596;52.520;13.464;2023-05-10T11:46:08;5.30;;;2.53;;
37753;SDS011;23596;52.520;13.464;2023-05-10T11:48:37;19.77;;;2.75;;
37753;SDS011;23596;52.520;13.464;2023-05-10T11:51:04;6.57;;;2.55;;
37753;SDS011;23596;52.520;13.464;2023-05-10T11:53:31;13.95;;;2.83;;
37753;SDS011;23596;52.520;13.464;2023-05-10T11:56:04;9.77;;;2.72;;
37753;SDS011;23596;52.520;13.464;2023-05-10T11:58:31;9.55;;;2.67;;
37753;SDS011;23596;52.520;13.464;2023-05-10T12:00:58;10.32;;;3.05;;
37753;SDS011;23596;52.520;13.464;2023-05-10T12:03:25;12.50;;;2.70;;
37753;SDS011;23596;52.520;13.464;2023-05-10T12:05:51;11.55;;;2.33;;
37753;SDS011;23596;52.520;13.464;2023-05-10T12:08:20;14.90;;;3.27;;
37753;SDS011;23596;52.520;13.464;2023-05-10T12:10:50;7.32;;;3.00;;
37753;SDS011;23596;52.520;13.464;2023-05-10T12:13:17;11.68;;;3.17;;
37753;SDS011;23596;52.520;13.464;2023-05-10T12:15:43;18.42;;;2.85;;
37753;SDS011;23596;52.520;13.464;2023-05-10T12:18:10;18.77;;;3.33;;
37753;SDS011;23596;52.520;13.464;2023-05-10T12:20:37;8.48;;;2.63;;
37753;SDS011;23596;52.520;13.464;2023-05-10T12:23:03;10.67;;;2.97;;
37753;SDS011;23596;52.520;13.464;2023-05-10T12:25:32;14.43;;;2.50;;
37753;SDS011;23596;52.520;13.464;2023-05-10T12:28:00;10.93;;;2.35;;
37753;SDS011;23596;52.520;13.464;2023-05-10T12:30:29;14.63;;;2.58;;
37753;SDS011;23596;52.520;13.464;2023-05-10T12:33:07;14.93;;;2.50;;
37753;SDS011;23596;52.520;13.464;2023-05-10T12:35:42;6.20;;;2.58;;
37753;SDS011;23596;52.520;13.464;2023-05-10T12:38:34;11.10;;;2.45;;
37753;SDS011;23596;52.520;13.464;2023-05-10T12:41:03;12.65;;;2.83;;
37753;SDS011;23596;52.520;13.464;2023-05-10T12:43:33;7.25;;;2.53;;
37753;SDS011;23596;52.520;13.464;2023-05-10T12:46:13;11.88;;;2.95;;
37753;SDS011;23596;52.520;13.464;2023-05-10T12:48:40;11.93;;;2.70;;
37753;SDS011;23596;52.520;13.464;2023-05-10T12:51:07;3.80;;;2.17;;
37753;SDS011;23596;52.520;13.464;2023-05-10T12:53:35;5.15;;;2.25;;
37753;SDS011;23596;52.520;13.464;2023-05-10T12:56:00;6.95;;;2.08;;
37753;SDS011;23596;52.520;13.464;2023-05-10T12:58:26;15.40;;;2.40;;
37753;SDS011;23596;52.520;13.464;2023-05-10T13:00:52;4.30;;;2.10;;
37753;SDS011;23596;52.520;13.464;2023-05-10T13:03:18;12.13;;;2.65;;
37753;SDS011;23596;52.520;13.464;2023-05-10T13:05:44;4.05;;;2.20;;
37753;SDS011;23596;52.520;13.464;2023-05-10T13:08:09;8.23;;;2.50;;
37753;SDS011;23596;52.520;13.464;2023-05-10T13:10:35;15.83;;;3.40;;
37753;SDS011;23596;52.520;13.464;2023-05-10T13:13:01;12.63;;;2.92;;
37753;SDS011;23596;52.520;13.464;2023-05-10T13:15:26;10.13;;;2.27;;
37753;SDS011;23596;52.520;13.464;2023-05-10T13:17:52;11.00;;;2.53;;
37753;SDS011;23596;52.520;13.464;2023-05-10T13:20:19;3.70;;;2.55;;
37753;SDS011;23596;52.520;13.464;2023-05-10T13:22:44;4.13;;;2.20;;
37753;SDS011;23596;52.520;13.464;2023-05-10T13:25:11;7.15;;;2.40;;
37753;SDS011;23596;52.520;13.464;2023-05-10T13:30:04;3.38;;;2.08;;
37753;SDS011;23596;52.520;13.464;2023-05-10T13:34:56;8.30;;;2.53;;
37753;SDS011;23596;52.520;13.464;2023-05-10T13:37:21;3.70;;;2.20;;
37753;SDS011;23596;52.520;13.464;2023-05-10T13:39:47;9.25;;;2.47;;
37753;SDS011;23596;52.520;13.464;2023-05-10T13:42:13;7.15;;;2.58;;
37753;SDS011;23596;52.520;13.464;2023-05-10T13:44:39;6.70;;;2.40;;
37753;SDS011;23596;52.520;13.464;2023-05-10T13:47:05;6.35;;;2.83;;
37753;SDS011;23596;52.520;13.464;2023-05-10T13:49:31;3.47;;;2.00;;
37753;SDS011;23596;52.520;13.464;2023-05-10T13:51:57;8.43;;;2.40;;
37753;SDS011;23596;52.520;13.464;2023-05-10T13:54:23;6.90;;;2.60;;
37753;SDS011;23596;52.520;13.464;2023-05-10T13:56:49;11.30;;;2.50;;
37753;SDS011;23596;52.520;13.464;2023-05-10T13:59:14;15.15;;;2.28;;
37753;SDS011;23596;52.520;13.464;2023-05-10T14:01:40;9.93;;;3.03;;
37753;SDS011;23596;52.520;13.464;2023-05-10T14:04:06;6.60;;;2.30;;
37753;SDS011;23596;52.520;13.464;2023-05-10T14:06:35;8.48;;;2.47;;
37753;SDS011;23596;52.520;13.464;2023-05-10T14:11:27;6.07;;;2.30;;
37753;SDS011;23596;52.520;13.464;2023-05-10T14:13:52;2.95;;;2.25;;
37753;SDS011;23596;52.520;13.464;2023-05-10T14:16:18;9.48;;;2.50;;
37753;SDS011;23596;52.520;13.464;2023-05-10T14:21:10;4.60;;;2.20;;
37753;SDS011;23596;52.520;13.464;2023-05-10T14:23:36;5.50;;;2.72;;
37753;SDS011;23596;52.520;13.464;2023-05-10T14:26:02;4.93;;;2.20;;
37753;SDS011;23596;52.520;13.464;2023-05-10T14:28:27;4.63;;;2.35;;
37753;SDS011;23596;52.520;13.464;2023-05-10T14:33:19;4.72;;;2.40;;
37753;SDS011;23596;52.520;13.464;2023-05-10T14:35:45;8.02;;;2.60;;
37753;SDS011;23596;52.520;13.464;2023-05-10T14:40:37;7.55;;;2.10;;
37753;SDS011;23596;52.520;13.464;2023-05-10T14:45:28;3.28;;;2.50;;
37753;SDS011;23596;52.520;13.464;2023-05-10T14:50:20;4.60;;;2.38;;
37753;SDS011;23596;52.520;13.464;2023-05-10T14:55:11;6.35;;;2.45;;
37753;SDS011;23596;52.520;13.464;2023-05-10T14:57:37;4.10;;;2.40;;
37753;SDS011;23596;52.520;13.464;2023-05-10T15:00:03;13.30;;;3.08;;
37753;SDS011;23596;52.520;13.464;2023-05-10T15:02:29;5.00;;;2.55;;
37753;SDS011;23596;52.520;13.464;2023-05-10T15:04:56;9.38;;;2.65;;
37753;SDS011;23596;52.520;13.464;2023-05-10T15:07:22;3.17;;;2.63;;
37753;SDS011;23596;52.520;13.464;2023-05-10T15:09:48;15.80;;;3.08;;
37753;SDS011;23596;52.520;13.464;2023-05-10T15:12:15;6.35;;;3.28;;
37753;SDS011;23596;52.520;13.464;2023-05-10T15:14:40;8.40;;;2.55;;
37753;SDS011;23596;52.520;13.464;2023-05-10T15:19:32;5.38;;;2.25;;
37753;SDS011;23596;52.520;13.464;2023-05-10T15:24:24;9.23;;;2.55;;
37753;SDS011;23596;52.520;13.464;2023-05-10T15:26:49;12.35;;;2.60;;
37753;SDS011;23596;52.520;13.464;2023-05-10T15:31:45;6.00;;;2.40;;
37753;SDS011;23596;52.520;13.464;2023-05-10T15:34:11;8.63;;;2.25;;
37753;SDS011;23596;52.520;13.464;2023-05-10T15:36:37;7.10;;;2.25;;
37753;SDS011;23596;52.520;13.464;2023-05-10T15:39:03;8.37;;;2.80;;
37753;SDS011;23596;52.520;13.464;2023-05-10T15:41:29;14.17;;;2.50;;
37753;SDS011;23596;52.520;13.464;2023-05-10T15:43:55;9.02;;;2.22;;
37753;SDS011;23596;52.520;13.464;2023-05-10T15:46:20;4.63;;;2.50;;
37753;SDS011;23596;52.520;13.464;2023-05-10T15:48:46;5.70;;;3.00;;